Latest Weather Observations for Salmon Gums RS

IDW60801

Issued at 10:02 pm WST Wednesday 28 January 2015 (issued every 30 minutes, with the page automatically refreshed every 10 minutes)

About weather observations | Map of weather stations | Latest weather observations for WA | Other Formats
Station Details ID: 012071 Name: SALMON GUMS RES.STN. Lat: -32.99 Lon: 121.62 Height: 249.0 m
Data from the previous 72 hours. | See also: Recent months at Salmon Gums RS
Date/Time
WST
Temp
°C
App
Temp
°C
Dew
Point
Rel
Hum
%
Delta-T
°C
Wind Press
QNH
hPa
Press
MSL
hPa
Rain
since 9 am
mm
Dir
 
Spd
km/h
Gust
km/h
Spd
kts
Gust
kts
28/10:00pm 22.1 17.6 8.6 42 7.2 ENE 22 28 12 15 - - 0.0
28/09:30pm 23.2 17.5 8.5 39 7.9 ENE 28 43 15 23 - - 0.0
28/09:00pm 24.4 19.8 9.6 39 8.2 ENE 24 44 13 24 - - 0.0
28/08:30pm 25.5 21.2 10.9 40 8.3 E 24 33 13 18 - - 0.0
28/08:00pm 27.1 22.2 4.2 23 11.7 E 19 33 10 18 - - 0.0
28/07:30pm 28.1 23.4 -1.9 14 13.8 E 13 19 7 10 - - 0.0
28/07:00pm 29.6 24.5 -1.7 13 14.6 E 15 20 8 11 - - 0.0
28/06:30pm 31.3 26.1 -2.6 11 15.8 E 15 24 8 13 - - 0.0
28/06:00pm 32.2 26.7 -2.0 11 16.2 ENE 17 24 9 13 - - 0.0
28/05:30pm 33.0 27.1 -2.6 10 16.8 ESE 19 28 10 15 - - 0.0
28/05:00pm 33.2 28.2 -3.9 9 17.2 ENE 13 24 7 13 - - 0.0
28/04:30pm 34.0 29.5 -3.3 9 17.5 E 11 20 6 11 - - 0.0
28/04:00pm 33.4 27.9 -2.3 10 17.0 ESE 17 30 9 16 - - 0.0
28/03:30pm 33.5 27.6 -2.3 10 17.0 E 19 28 10 15 - - 0.0
28/03:00pm 33.6 28.6 -0.9 11 16.8 NE 15 22 8 12 - - 0.0
28/02:30pm 34.4 29.1 -0.3 11 17.2 E 17 33 9 18 - - 0.0
28/02:00pm 32.9 28.8 -0.2 12 16.2 NE 11 26 6 14 - - 0.0
28/01:30pm 33.1 28.4 1.0 13 16.1 ENE 15 28 8 15 - - 0.0
28/01:00pm 32.1 27.1 1.3 14 15.4 E 17 30 9 16 - - 0.0
28/12:30pm 32.5 28.1 2.5 15 15.4 NE 15 33 8 18 - - 0.0
28/12:00pm 31.3 26.4 4.2 18 14.2 NE 19 33 10 18 - - 0.0
28/11:30am 30.3 25.9 4.9 20 13.4 NE 17 28 9 15 - - 0.0
28/11:00am 30.0 25.5 6.0 22 12.8 NE 19 28 10 15 - - 0.0
28/10:30am 28.6 24.3 7.2 26 11.6 NE 19 30 10 16 - - 0.0
28/10:00am 27.7 23.9 7.5 28 10.9 NE 17 26 9 14 - - 0.0
28/09:30am 26.0 21.6 7.6 31 9.9 NE 20 30 11 16 - - 0.0
28/09:00am 24.1 19.6 8.5 37 8.4 NE 22 33 12 18 - - 0.0
28/08:30am 22.4 18.2 8.1 40 7.6 NE 20 32 11 17 - - 0.0
28/08:00am 20.5 16.7 9.7 50 5.8 NE 20 32 11 17 - - 0.0
28/07:30am 19.0 15.1 10.8 59 4.5 NE 22 35 12 19 - - 0.0
28/07:00am 18.0 14.7 11.6 66 3.5 ENE 20 30 11 16 - - 0.0
28/06:30am 16.8 13.6 11.9 73 2.7 ENE 20 30 11 16 - - 0.0
28/06:00am 15.9 13.3 11.9 77 2.2 ENE 17 20 9 11 - - 0.0
28/05:30am 15.2 12.9 11.8 80 1.9 ENE 15 20 8 11 - - 0.0
28/05:00am 15.2 13.2 11.6 79 2.0 ENE 13 20 7 11 - - 0.0
28/04:30am 15.6 12.9 11.8 78 2.1 ENE 17 22 9 12 - - 0.0
28/04:00am 15.9 13.2 11.7 76 2.3 ENE 17 28 9 15 - - 0.0
28/03:30am 16.2 13.5 11.8 75 2.4 ENE 17 24 9 13 - - 0.0
28/03:00am 16.6 13.4 12.0 74 2.5 ENE 20 28 11 15 - - 0.0
28/02:30am 16.8 13.8 11.9 73 2.7 ENE 19 30 10 16 - - 0.0
28/02:00am 17.0 14.4 12.1 73 2.7 ENE 17 26 9 14 - - 0.0
28/01:30am 17.3 14.3 12.4 73 2.7 ENE 20 28 11 15 - - 0.0
28/01:00am 17.6 14.6 12.5 72 2.9 ENE 20 32 11 17 - - 0.0
28/12:30am 17.9 15.1 12.6 71 3.0 ENE 19 26 10 14 - - 0.0
28/12:00am 18.2 14.6 12.0 67 3.5 ENE 22 32 12 17 - - 0.0
 
Date/Time
WST
Temp
°C
App
Temp
°C
Dew
Point
Rel
Hum
%
Delta-T
°C
Wind Press
QNH
hPa
Press
MSL
hPa
Rain
since 9 am
mm
Dir
 
Spd
km/h
Gust
km/h
Spd
kts
Gust
kts
27/11:30pm 18.9 15.2 11.5 62 4.1 E 22 32 12 17 - - 0.0
27/11:00pm 19.7 16.1 10.4 55 5.1 E 20 33 11 18 - - 0.0
27/10:30pm 20.1 16.9 11.1 56 5.0 E 19 28 10 15 - - 0.0
27/10:00pm 21.1 17.0 11.4 54 5.4 E 24 33 13 18 - - 0.0
27/09:30pm 22.0 17.9 11.4 51 6.0 E 24 33 13 18 - - 0.0
27/09:00pm 23.1 18.9 11.2 47 6.7 E 24 37 13 20 - - 0.0
27/08:30pm 24.6 20.4 11.2 43 7.6 E 24 37 13 20 - - 0.0
27/08:00pm 26.5 21.4 10.6 37 9.0 E 28 41 15 22 - - 0.0
27/07:54pm 27.2 23.0 7.6 29 10.6 E 19 35 10 19 - - 0.0
27/07:30pm 27.2 24.2 4.3 23 11.7 ESE 9 13 5 7 - - 0.0
27/07:00pm 29.0 25.7 4.5 21 12.7 E 11 13 6 7 - - 0.0
27/06:30pm 30.8 26.7 4.5 19 13.8 ESE 15 22 8 12 - - 0.0
27/06:00pm 31.4 26.9 4.2 18 14.2 E 17 24 9 13 - - 0.0
27/05:30pm 31.9 27.8 4.6 18 14.4 E 15 28 8 15 - - 0.0
27/05:00pm 32.1 28.8 4.8 18 14.5 E 11 19 6 10 - - 0.0
27/04:30pm 31.9 28.6 4.6 18 14.4 E 11 19 6 10 - - 0.0
27/04:00pm 32.4 29.2 5.1 18 14.6 NNE 11 20 6 11 - - 0.0
27/03:30pm 32.5 29.2 4.3 17 14.9 ESE 11 30 6 16 - - 0.0
27/03:00pm 31.7 27.3 4.5 18 14.3 ENE 17 26 9 14 - - 0.0
27/02:30pm 31.7 27.0 5.3 19 14.1 ENE 19 33 10 18 - - 0.0
27/02:00pm 30.7 26.6 4.4 19 13.8 ENE 15 35 8 19 - - 0.0
27/01:30pm 30.7 27.3 5.9 21 13.3 ENE 13 32 7 17 - - 0.0
27/01:00pm 30.2 26.1 6.1 22 12.9 ENE 17 30 9 16 - - 0.0
27/12:30pm 29.2 24.5 6.0 23 12.4 NNE 20 32 11 17 - - 0.0
27/12:00pm 28.3 24.0 7.0 26 11.5 ENE 19 30 10 16 - - 0.0
27/11:30am 27.5 22.3 7.4 28 10.9 ENE 24 35 13 19 - - 0.0
27/11:00am 26.2 21.9 7.7 31 10.0 NE 20 33 11 18 - - 0.0
27/10:30am 26.2 22.1 8.7 33 9.6 NE 20 30 11 16 - - 0.0
27/10:00am 24.9 21.0 8.8 36 8.8 NE 19 28 10 15 - - 0.0
27/09:30am 23.7 19.4 9.3 40 7.9 ENE 22 35 12 19 - - 0.0
27/09:00am 22.5 17.9 9.6 44 7.1 ENE 24 35 13 19 - - 0.0
27/08:30am 21.3 17.0 9.5 47 6.4 ENE 22 35 12 19 - - 0.0
27/08:00am 19.6 14.7 9.8 53 5.3 NE 26 39 14 21 - - 0.0
27/07:30am 18.4 13.6 10.3 59 4.4 NE 26 39 14 21 - - 0.0
27/07:00am 17.3 12.9 10.4 64 3.7 ENE 24 35 13 19 - - 0.0
27/06:30am 16.0 12.1 10.7 71 2.9 ENE 22 33 12 18 - - 0.0
27/06:00am 14.9 11.9 10.7 76 2.2 ENE 17 26 9 14 - - 0.0
27/05:30am 14.1 11.1 10.7 80 1.8 ENE 17 20 9 11 - - 0.0
27/05:00am 14.0 11.0 10.8 81 1.7 ENE 17 22 9 12 - - 0.0
27/04:30am 14.2 11.3 11.0 81 1.7 ENE 17 22 9 12 - - 0.0
27/04:00am 14.4 11.1 11.0 80 1.8 ENE 19 28 10 15 - - 0.0
27/03:30am 14.3 10.9 10.7 79 1.9 ENE 19 26 10 14 - - 0.0
27/03:00am 14.5 10.9 10.7 78 2.0 ENE 20 28 11 15 - - 0.0
27/02:30am 14.6 12.0 10.8 78 2.0 ENE 15 22 8 12 - - 0.0
27/02:00am 14.9 11.5 10.7 76 2.2 ENE 19 28 10 15 - - 0.0
27/01:30am 15.2 11.2 10.6 74 2.5 ENE 22 32 12 17 - - 0.0
27/01:00am 15.3 11.9 10.5 73 2.6 ENE 19 26 10 14 - - 0.0
27/12:30am 15.6 12.0 10.4 71 2.8 ENE 20 30 11 16 - - 0.0
27/12:00am 15.8 12.3 10.3 70 2.9 E 19 26 10 14 - - 0.0
 
Date/Time
WST
Temp
°C
App
Temp
°C
Dew
Point
Rel
Hum
%
Delta-T
°C
Wind Press
QNH
hPa
Press
MSL
hPa
Rain
since 9 am
mm
Dir
 
Spd
km/h
Gust
km/h
Spd
kts
Gust
kts
26/11:30pm 16.2 11.8 10.3 68 3.2 E 24 35 13 19 - - 0.0
26/11:00pm 16.6 12.2 10.5 67 3.3 E 24 30 13 16 - - 0.0
26/10:30pm 17.2 12.8 10.3 64 3.7 E 24 35 13 19 - - 0.0
26/10:00pm 18.1 13.3 10.2 60 4.3 E 26 33 14 18 - - 0.0
26/09:30pm 19.0 14.7 9.5 54 5.1 E 22 32 12 17 - - 0.0
26/09:00pm 20.1 15.4 9.4 50 5.7 E 24 33 13 18 - - 0.0
26/08:30pm 21.7 17.4 9.3 45 6.7 E 22 33 12 18 - - 0.0
26/08:00pm 23.3 18.3 8.2 38 8.1 E 24 33 13 18 - - 0.0
26/07:43pm 24.2 18.3 7.4 34 8.9 ESE 28 39 15 21 - - 0.0
26/07:30pm 25.1 21.3 3.7 25 10.7 E 13 19 7 10 - - 0.0
26/07:00pm 26.2 22.2 2.8 22 11.6 E 13 20 7 11 - - 0.0
26/06:30pm 27.5 22.7 2.6 20 12.4 E 17 24 9 13 - - 0.0
26/06:00pm 28.4 23.6 2.6 19 12.9 E 17 24 9 13 - - 0.0
26/05:30pm 29.1 24.3 2.4 18 13.4 E 17 24 9 13 - - 0.0
26/05:00pm 29.4 24.2 2.6 18 13.5 ESE 19 28 10 15 - - 0.0
26/04:30pm 29.0 24.4 1.5 17 13.5 E 15 24 8 13 - - 0.0
26/04:00pm 29.1 24.5 1.6 17 13.6 E 15 26 8 14 - - 0.0
26/03:30pm 28.7 23.2 2.1 18 13.2 ESE 20 30 11 16 - - 0.0
26/03:00pm 28.4 24.1 3.3 20 12.7 ESE 15 28 8 15 - - 0.0
26/02:30pm 27.9 22.9 3.6 21 12.3 E 19 32 10 17 - - 0.0
26/02:00pm 28.4 24.3 4.6 22 12.3 E 15 41 8 22 - - 0.0
26/01:30pm 28.0 22.8 5.6 24 11.8 ESE 22 30 12 16 - - 0.0
26/01:00pm 26.6 22.0 5.5 26 11.0 E 19 33 10 18 - - 0.0
26/12:30pm 26.6 22.5 6.1 27 10.8 SE 17 35 9 19 - - 0.0
26/12:00pm 26.0 21.3 6.1 28 10.4 E 20 37 11 20 - - 0.0
26/11:30am 23.8 19.3 6.1 32 9.1 E 19 33 10 18 - - 0.0
26/11:00am 24.2 20.0 7.4 34 8.9 ENE 19 30 10 16 - - 0.0
26/10:30am 22.7 18.4 6.9 36 8.2 ENE 19 28 10 15 - - 0.0
26/10:00am 21.9 17.6 7.0 38 7.7 E 19 32 10 17 - - 0.0
26/09:30am 21.5 17.2 7.7 41 7.2 E 20 30 11 16 - - 0.0
26/09:00am 19.8 15.6 7.5 45 6.4 E 19 32 10 17 - - 0.0
26/08:30am 19.2 14.9 7.9 48 5.9 E 20 30 11 16 - - 0.0
26/08:00am 17.5 12.6 8.4 55 4.7 ENE 24 33 13 18 - - 0.0
26/07:30am 16.9 12.8 8.6 58 4.3 ENE 20 32 11 17 - - 0.0
26/07:00am 15.2 11.6 8.4 64 3.5 E 17 28 9 15 - - 0.0
26/06:30am 13.4 10.6 8.5 72 2.5 E 13 20 7 11 - - 0.0
26/06:00am 11.6 9.5 8.1 79 1.7 E 9 11 5 6 - - 0.0
26/05:30am 9.8 7.8 7.2 84 1.2 ESE 7 9 4 5 - - 0.0
26/05:00am 9.5 7.6 6.6 82 1.4 ESE 6 7 3 4 - - 0.0
26/04:30am 10.4 8.1 7.3 81 1.5 ESE 9 13 5 7 - - 0.0
26/04:00am 10.3 7.9 7.0 80 1.6 ESE 9 11 5 6 - - 0.0
26/03:30am 10.6 8.2 7.1 79 1.7 ESE 9 11 5 6 - - 0.0
26/03:00am 10.8 8.4 7.1 78 1.8 ESE 9 11 5 6 - - 0.0
26/02:30am 11.1 8.7 7.2 77 1.9 SE 9 11 5 6 - - 0.0
26/02:00am 11.3 8.9 7.0 75 2.1 SE 9 11 5 6 - - 0.0
26/01:30am 12.4 10.1 7.3 71 2.5 ESE 9 11 5 6 - - 0.0
26/01:00am 13.5 10.9 7.7 68 2.9 E 11 15 6 8 - - 0.0
26/12:30am 13.9 10.4 7.4 65 3.2 E 15 20 8 11 - - 0.0
26/12:00am 14.4 10.7 7.9 65 3.3 E 17 22 9 12 - - 0.0
 
Date/Time
WST
Temp
°C
App
Temp
°C
Dew
Point
Rel
Hum
%
Delta-T
°C
Wind Press
QNH
hPa
Press
MSL
hPa
Rain
since 9 am
mm
Dir
 
Spd
km/h
Gust
km/h
Spd
kts
Gust
kts
25/11:30pm 14.3 11.0 8.0 66 3.2 ESE 15 20 8 11 - - 0.0
25/11:00pm 14.6 10.9 7.9 64 3.4 ESE 17 22 9 12 - - 0.0
25/10:30pm 14.8 10.5 7.8 63 3.5 SE 20 28 11 15 - - 0.0

Other Formats:

Comma delimited format used in spreadsheet applications
http://www.bom.gov.au/fwo/IDW60801/IDW60801.95639.axf

JavaScript Object Notation format (JSON) in row-major order
http://www.bom.gov.au/fwo/IDW60801/IDW60801.95639.json